sensor_id;sensor_type;location;lat;lon;timestamp;P1;durP1;ratioP1;P2;durP2;ratioP2
75171;SDS011;63750;52.418;20.742;2023-04-01T00:00:04;33.30;;;28.60;;
75171;SDS011;63750;52.418;20.742;2023-04-01T00:02:35;33.40;;;27.90;;
75171;SDS011;63750;52.418;20.742;2023-04-01T00:05:05;31.70;;;27.70;;
75171;SDS011;63750;52.418;20.742;2023-04-01T00:07:35;30.50;;;27.10;;
75171;SDS011;63750;52.418;20.742;2023-04-01T00:10:04;30.50;;;27.30;;
75171;SDS011;63750;52.418;20.742;2023-04-01T00:12:34;29.20;;;25.80;;
75171;SDS011;63750;52.418;20.742;2023-04-01T00:15:04;31.60;;;26.10;;
75171;SDS011;63750;52.418;20.742;2023-04-01T00:17:35;30.30;;;25.50;;
75171;SDS011;63750;52.418;20.742;2023-04-01T00:20:04;28.20;;;24.30;;
75171;SDS011;63750;52.418;20.742;2023-04-01T00:22:34;28.10;;;23.80;;
75171;SDS011;63750;52.418;20.742;2023-04-01T00:25:02;27.60;;;24.40;;
75171;SDS011;63750;52.418;20.742;2023-04-01T00:27:31;29.40;;;25.90;;
75171;SDS011;63750;52.418;20.742;2023-04-01T00:30:00;29.10;;;25.40;;
75171;SDS011;63750;52.418;20.742;2023-04-01T00:32:29;30.90;;;25.70;;
75171;SDS011;63750;52.418;20.742;2023-04-01T00:34:57;29.30;;;25.70;;
75171;SDS011;63750;52.418;20.742;2023-04-01T00:37:26;31.80;;;25.50;;
75171;SDS011;63750;52.418;20.742;2023-04-01T00:39:55;29.30;;;25.40;;
75171;SDS011;63750;52.418;20.742;2023-04-01T00:42:24;30.20;;;26.90;;
75171;SDS011;63750;52.418;20.742;2023-04-01T00:44:53;31.60;;;26.00;;
75171;SDS011;63750;52.418;20.742;2023-04-01T00:47:22;31.30;;;26.60;;
75171;SDS011;63750;52.418;20.742;2023-04-01T00:49:53;30.60;;;26.00;;
75171;SDS011;63750;52.418;20.742;2023-04-01T00:52:23;33.50;;;27.40;;
75171;SDS011;63750;52.418;20.742;2023-04-01T00:54:54;37.50;;;28.70;;
75171;SDS011;63750;52.418;20.742;2023-04-01T00:57:28;32.70;;;28.10;;
75171;SDS011;63750;52.418;20.742;2023-04-01T01:00:01;35.80;;;29.70;;
75171;SDS011;63750;52.418;20.742;2023-04-01T01:02:31;34.30;;;28.80;;
75171;SDS011;63750;52.418;20.742;2023-04-01T01:05:01;34.80;;;29.30;;
75171;SDS011;63750;52.418;20.742;2023-04-01T01:07:31;33.10;;;27.20;;
75171;SDS011;63750;52.418;20.742;2023-04-01T01:10:10;34.80;;;29.20;;
75171;SDS011;63750;52.418;20.742;2023-04-01T01:12:45;38.00;;;29.60;;
75171;SDS011;63750;52.418;20.742;2023-04-01T01:15:20;35.80;;;28.70;;
75171;SDS011;63750;52.418;20.742;2023-04-01T01:17:54;33.60;;;27.20;;
75171;SDS011;63750;52.418;20.742;2023-04-01T01:23:40;34.20;;;26.60;;
75171;SDS011;63750;52.418;20.742;2023-04-01T01:26:39;36.00;;;27.20;;
75171;SDS011;63750;52.418;20.742;2023-04-01T01:29:26;36.80;;;27.80;;
75171;SDS011;63750;52.418;20.742;2023-04-01T01:32:07;39.60;;;29.50;;
75171;SDS011;63750;52.418;20.742;2023-04-01T01:34:46;38.20;;;28.00;;
75171;SDS011;63750;52.418;20.742;2023-04-01T01:37:22;37.10;;;28.70;;
75171;SDS011;63750;52.418;20.742;2023-04-01T01:39:55;37.20;;;29.40;;
75171;SDS011;63750;52.418;20.742;2023-04-01T01:42:27;36.40;;;28.20;;
75171;SDS011;63750;52.418;20.742;2023-04-01T01:44:58;34.50;;;28.20;;
75171;SDS011;63750;52.418;20.742;2023-04-01T01:47:30;39.00;;;28.30;;
75171;SDS011;63750;52.418;20.742;2023-04-01T01:50:00;38.60;;;29.30;;
75171;SDS011;63750;52.418;20.742;2023-04-01T01:52:31;35.00;;;28.20;;
75171;SDS011;63750;52.418;20.742;2023-04-01T01:54:59;36.30;;;26.20;;
75171;SDS011;63750;52.418;20.742;2023-04-01T01:57:28;35.80;;;28.20;;
75171;SDS011;63750;52.418;20.742;2023-04-01T02:00:00;34.80;;;26.70;;
75171;SDS011;63750;52.418;20.742;2023-04-01T02:02:32;33.40;;;25.60;;
75171;SDS011;63750;52.418;20.742;2023-04-01T02:05:01;31.60;;;24.60;;
75171;SDS011;63750;52.418;20.742;2023-04-01T02:07:32;32.20;;;25.60;;
75171;SDS011;63750;52.418;20.742;2023-04-01T02:10:04;30.10;;;24.70;;
75171;SDS011;63750;52.418;20.742;2023-04-01T02:12:34;30.40;;;23.90;;
75171;SDS011;63750;52.418;20.742;2023-04-01T02:15:05;31.20;;;24.30;;
75171;SDS011;63750;52.418;20.742;2023-04-01T02:17:37;28.50;;;23.20;;
75171;SDS011;63750;52.418;20.742;2023-04-01T02:20:11;32.10;;;24.70;;
75171;SDS011;63750;52.418;20.742;2023-04-01T02:22:43;30.70;;;22.60;;
75171;SDS011;63750;52.418;20.742;2023-04-01T02:25:15;28.10;;;22.20;;
75171;SDS011;63750;52.418;20.742;2023-04-01T02:27:46;30.10;;;23.60;;
75171;SDS011;63750;52.418;20.742;2023-04-01T02:30:15;28.00;;;22.60;;
75171;SDS011;63750;52.418;20.742;2023-04-01T02:32:45;28.00;;;22.20;;
75171;SDS011;63750;52.418;20.742;2023-04-01T02:35:15;30.30;;;25.00;;
75171;SDS011;63750;52.418;20.742;2023-04-01T02:37:45;27.70;;;22.90;;
75171;SDS011;63750;52.418;20.742;2023-04-01T02:40:16;26.70;;;23.00;;
75171;SDS011;63750;52.418;20.742;2023-04-01T02:42:45;30.20;;;22.80;;
75171;SDS011;63750;52.418;20.742;2023-04-01T02:45:14;27.70;;;22.10;;
75171;SDS011;63750;52.418;20.742;2023-04-01T02:47:43;25.70;;;22.60;;
75171;SDS011;63750;52.418;20.742;2023-04-01T02:50:11;26.40;;;22.00;;
75171;SDS011;63750;52.418;20.742;2023-04-01T02:52:40;29.70;;;24.20;;
75171;SDS011;63750;52.418;20.742;2023-04-01T02:55:09;28.50;;;23.00;;
75171;SDS011;63750;52.418;20.742;2023-04-01T02:57:37;27.70;;;22.90;;
75171;SDS011;63750;52.418;20.742;2023-04-01T03:00:07;28.80;;;23.70;;
75171;SDS011;63750;52.418;20.742;2023-04-01T03:02:37;27.30;;;23.60;;
75171;SDS011;63750;52.418;20.742;2023-04-01T03:05:06;28.70;;;23.90;;
75171;SDS011;63750;52.418;20.742;2023-04-01T03:07:35;28.10;;;23.60;;
75171;SDS011;63750;52.418;20.742;2023-04-01T03:10:05;29.40;;;23.70;;
75171;SDS011;63750;52.418;20.742;2023-04-01T03:12:34;28.90;;;23.90;;
75171;SDS011;63750;52.418;20.742;2023-04-01T03:15:03;29.10;;;22.90;;
75171;SDS011;63750;52.418;20.742;2023-04-01T03:17:33;31.50;;;23.60;;
75171;SDS011;63750;52.418;20.742;2023-04-01T03:20:02;28.90;;;23.10;;
75171;SDS011;63750;52.418;20.742;2023-04-01T03:22:31;28.40;;;23.10;;
75171;SDS011;63750;52.418;20.742;2023-04-01T03:25:00;27.30;;;22.30;;
75171;SDS011;63750;52.418;20.742;2023-04-01T03:27:29;28.80;;;23.80;;
75171;SDS011;63750;52.418;20.742;2023-04-01T03:29:57;27.30;;;23.20;;
75171;SDS011;63750;52.418;20.742;2023-04-01T03:32:26;28.20;;;23.20;;
75171;SDS011;63750;52.418;20.742;2023-04-01T03:34:54;28.90;;;23.00;;
75171;SDS011;63750;52.418;20.742;2023-04-01T03:37:23;29.00;;;23.40;;
75171;SDS011;63750;52.418;20.742;2023-04-01T03:39:51;29.20;;;23.50;;
75171;SDS011;63750;52.418;20.742;2023-04-01T03:42:20;26.70;;;22.60;;
75171;SDS011;63750;52.418;20.742;2023-04-01T03:44:49;27.30;;;23.20;;
75171;SDS011;63750;52.418;20.742;2023-04-01T03:47:17;30.20;;;22.70;;
75171;SDS011;63750;52.418;20.742;2023-04-01T03:49:45;28.20;;;23.10;;
75171;SDS011;63750;52.418;20.742;2023-04-01T03:52:14;28.50;;;23.70;;
75171;SDS011;63750;52.418;20.742;2023-04-01T03:54:42;27.80;;;23.50;;
75171;SDS011;63750;52.418;20.742;2023-04-01T03:57:11;27.10;;;23.10;;
75171;SDS011;63750;52.418;20.742;2023-04-01T03:59:40;27.80;;;22.10;;
75171;SDS011;63750;52.418;20.742;2023-04-01T04:02:08;28.70;;;23.80;;
75171;SDS011;63750;52.418;20.742;2023-04-01T04:04:37;28.30;;;23.10;;
75171;SDS011;63750;52.418;20.742;2023-04-01T04:07:05;28.50;;;22.50;;
75171;SDS011;63750;52.418;20.742;2023-04-01T04:09:33;27.70;;;23.10;;
75171;SDS011;63750;52.418;20.742;2023-04-01T04:12:02;28.30;;;23.20;;
75171;SDS011;63750;52.418;20.742;2023-04-01T04:14:32;29.70;;;22.60;;
75171;SDS011;63750;52.418;20.742;2023-04-01T04:17:01;29.50;;;23.60;;
75171;SDS011;63750;52.418;20.742;2023-04-01T04:19:32;24.50;;;21.00;;
75171;SDS011;63750;52.418;20.742;2023-04-01T04:22:01;24.90;;;20.90;;
75171;SDS011;63750;52.418;20.742;2023-04-01T04:24:29;19.90;;;17.90;;
75171;SDS011;63750;52.418;20.742;2023-04-01T04:26:58;20.40;;;17.40;;
75171;SDS011;63750;52.418;20.742;2023-04-01T04:29:26;20.00;;;17.90;;
75171;SDS011;63750;52.418;20.742;2023-04-01T04:31:55;22.80;;;17.60;;
75171;SDS011;63750;52.418;20.742;2023-04-01T04:34:24;21.80;;;19.50;;
75171;SDS011;63750;52.418;20.742;2023-04-01T04:36:52;23.30;;;20.80;;
75171;SDS011;63750;52.418;20.742;2023-04-01T04:39:20;23.40;;;20.90;;
75171;SDS011;63750;52.418;20.742;2023-04-01T04:41:49;25.30;;;22.20;;
75171;SDS011;63750;52.418;20.742;2023-04-01T04:44:18;25.30;;;22.60;;
75171;SDS011;63750;52.418;20.742;2023-04-01T04:46:46;25.40;;;22.40;;
75171;SDS011;63750;52.418;20.742;2023-04-01T04:49:15;25.50;;;22.70;;
75171;SDS011;63750;52.418;20.742;2023-04-01T04:51:43;26.50;;;23.20;;
75171;SDS011;63750;52.418;20.742;2023-04-01T04:54:12;25.80;;;23.00;;
75171;SDS011;63750;52.418;20.742;2023-04-01T04:56:40;27.50;;;23.50;;
75171;SDS011;63750;52.418;20.742;2023-04-01T04:59:09;26.20;;;23.50;;
75171;SDS011;63750;52.418;20.742;2023-04-01T05:01:37;26.40;;;23.50;;
75171;SDS011;63750;52.418;20.742;2023-04-01T05:04:06;26.10;;;23.30;;
75171;SDS011;63750;52.418;20.742;2023-04-01T05:06:35;25.90;;;22.90;;
75171;SDS011;63750;52.418;20.742;2023-04-01T05:09:03;25.00;;;22.30;;
75171;SDS011;63750;52.418;20.742;2023-04-01T05:11:32;27.20;;;22.50;;
75171;SDS011;63750;52.418;20.742;2023-04-01T05:14:00;23.90;;;21.40;;
75171;SDS011;63750;52.418;20.742;2023-04-01T05:16:29;24.70;;;21.70;;
75171;SDS011;63750;52.418;20.742;2023-04-01T05:18:58;24.00;;;21.40;;
75171;SDS011;63750;52.418;20.742;2023-04-01T05:21:26;23.30;;;20.70;;
75171;SDS011;63750;52.418;20.742;2023-04-01T05:23:55;23.10;;;20.30;;
75171;SDS011;63750;52.418;20.742;2023-04-01T05:26:23;23.40;;;20.30;;
75171;SDS011;63750;52.418;20.742;2023-04-01T05:28:52;20.10;;;18.10;;
75171;SDS011;63750;52.418;20.742;2023-04-01T05:31:20;21.80;;;19.30;;
75171;SDS011;63750;52.418;20.742;2023-04-01T05:33:49;21.00;;;18.80;;
75171;SDS011;63750;52.418;20.742;2023-04-01T05:36:18;21.60;;;19.30;;
75171;SDS011;63750;52.418;20.742;2023-04-01T05:38:46;20.30;;;18.10;;
75171;SDS011;63750;52.418;20.742;2023-04-01T05:41:15;18.00;;;16.20;;
75171;SDS011;63750;52.418;20.742;2023-04-01T05:43:43;20.00;;;17.40;;
75171;SDS011;63750;52.418;20.742;2023-04-01T05:46:16;19.80;;;17.80;;
75171;SDS011;63750;52.418;20.742;2023-04-01T05:48:45;20.00;;;17.90;;
75171;SDS011;63750;52.418;20.742;2023-04-01T05:51:14;23.10;;;19.40;;
75171;SDS011;63750;52.418;20.742;2023-04-01T05:53:42;22.90;;;19.00;;
75171;SDS011;63750;52.418;20.742;2023-04-01T05:56:11;25.50;;;19.10;;
75171;SDS011;63750;52.418;20.742;2023-04-01T05:58:39;24.00;;;18.00;;
75171;SDS011;63750;52.418;20.742;2023-04-01T06:01:09;21.30;;;17.20;;
75171;SDS011;63750;52.418;20.742;2023-04-01T06:03:38;18.70;;;16.30;;
75171;SDS011;63750;52.418;20.742;2023-04-01T06:06:08;17.40;;;15.60;;
75171;SDS011;63750;52.418;20.742;2023-04-01T06:08:42;18.00;;;15.10;;
75171;SDS011;63750;52.418;20.742;2023-04-01T06:11:18;18.10;;;15.50;;
75171;SDS011;63750;52.418;20.742;2023-04-01T06:14:00;17.20;;;15.30;;
75171;SDS011;63750;52.418;20.742;2023-04-01T06:16:47;17.40;;;14.70;;
75171;SDS011;63750;52.418;20.742;2023-04-01T06:19:28;16.00;;;13.80;;
75171;SDS011;63750;52.418;20.742;2023-04-01T06:22:08;14.90;;;13.40;;
75171;SDS011;63750;52.418;20.742;2023-04-01T06:25:16;15.30;;;13.70;;
75171;SDS011;63750;52.418;20.742;2023-04-01T06:31:05;17.90;;;15.40;;
75171;SDS011;63750;52.418;20.742;2023-04-01T06:33:50;14.20;;;12.50;;
75171;SDS011;63750;52.418;20.742;2023-04-01T06:36:33;12.70;;;11.20;;
75171;SDS011;63750;52.418;20.742;2023-04-01T06:42:32;12.50;;;11.20;;
75171;SDS011;63750;52.418;20.742;2023-04-01T06:45:16;12.90;;;11.60;;
75171;SDS011;63750;52.418;20.742;2023-04-01T06:47:58;11.60;;;10.50;;
75171;SDS011;63750;52.418;20.742;2023-04-01T06:50:44;10.40;;;9.40;;
75171;SDS011;63750;52.418;20.742;2023-04-01T06:53:23;10.00;;;9.10;;
75171;SDS011;63750;52.418;20.742;2023-04-01T06:56:02;9.80;;;8.80;;
75171;SDS011;63750;52.418;20.742;2023-04-01T06:58:36;8.90;;;8.00;;
75171;SDS011;63750;52.418;20.742;2023-04-01T07:01:08;8.90;;;8.10;;
75171;SDS011;63750;52.418;20.742;2023-04-01T07:03:41;9.50;;;8.60;;
75171;SDS011;63750;52.418;20.742;2023-04-01T07:06:14;8.90;;;8.10;;
75171;SDS011;63750;52.418;20.742;2023-04-01T07:08:51;8.00;;;7.20;;
75171;SDS011;63750;52.418;20.742;2023-04-01T07:11:24;7.70;;;7.00;;
75171;SDS011;63750;52.418;20.742;2023-04-01T07:13:57;8.40;;;7.60;;
75171;SDS011;63750;52.418;20.742;2023-04-01T07:16:29;8.80;;;7.90;;
75171;SDS011;63750;52.418;20.742;2023-04-01T07:19:02;7.70;;;7.00;;
75171;SDS011;63750;52.418;20.742;2023-04-01T07:21:39;7.40;;;6.60;;
75171;SDS011;63750;52.418;20.742;2023-04-01T07:24:13;6.90;;;6.20;;
75171;SDS011;63750;52.418;20.742;2023-04-01T07:26:48;6.30;;;5.80;;
75171;SDS011;63750;52.418;20.742;2023-04-01T07:29:20;5.70;;;5.30;;
75171;SDS011;63750;52.418;20.742;2023-04-01T07:31:53;5.60;;;5.10;;
75171;SDS011;63750;52.418;20.742;2023-04-01T07:34:48;6.00;;;5.40;;
75171;SDS011;63750;52.418;20.742;2023-04-01T07:37:24;6.10;;;5.60;;
75171;SDS011;63750;52.418;20.742;2023-04-01T07:40:01;7.50;;;6.50;;
75171;SDS011;63750;52.418;20.742;2023-04-01T07:42:44;7.00;;;6.30;;
75171;SDS011;63750;52.418;20.742;2023-04-01T07:45:24;7.10;;;6.40;;
75171;SDS011;63750;52.418;20.742;2023-04-01T07:50:53;7.50;;;6.90;;
75171;SDS011;63750;52.418;20.742;2023-04-01T07:53:29;6.70;;;6.00;;
75171;SDS011;63750;52.418;20.742;2023-04-01T07:56:04;7.50;;;6.80;;
75171;SDS011;63750;52.418;20.742;2023-04-01T07:58:37;7.60;;;6.90;;
75171;SDS011;63750;52.418;20.742;2023-04-01T08:01:18;6.90;;;6.30;;
75171;SDS011;63750;52.418;20.742;2023-04-01T08:04:01;7.20;;;6.60;;
75171;SDS011;63750;52.418;20.742;2023-04-01T08:06:39;7.00;;;6.40;;
75171;SDS011;63750;52.418;20.742;2023-04-01T08:09:15;7.70;;;7.00;;
75171;SDS011;63750;52.418;20.742;2023-04-01T08:11:54;9.30;;;8.40;;
75171;SDS011;63750;52.418;20.742;2023-04-01T08:14:32;8.30;;;7.50;;
75171;SDS011;63750;52.418;20.742;2023-04-01T08:17:10;8.60;;;7.70;;
75171;SDS011;63750;52.418;20.742;2023-04-01T08:19:49;9.30;;;8.40;;
75171;SDS011;63750;52.418;20.742;2023-04-01T08:22:30;10.00;;;9.10;;
75171;SDS011;63750;52.418;20.742;2023-04-01T08:25:05;10.30;;;9.30;;
75171;SDS011;63750;52.418;20.742;2023-04-01T08:27:41;11.40;;;9.90;;
75171;SDS011;63750;52.418;20.742;2023-04-01T08:30:18;11.60;;;10.50;;
75171;SDS011;63750;52.418;20.742;2023-04-01T08:32:50;11.60;;;10.50;;
75171;SDS011;63750;52.418;20.742;2023-04-01T08:35:26;11.00;;;9.90;;
75171;SDS011;63750;52.418;20.742;2023-04-01T08:37:59;11.90;;;10.80;;
75171;SDS011;63750;52.418;20.742;2023-04-01T08:40:41;12.90;;;11.70;;
75171;SDS011;63750;52.418;20.742;2023-04-01T08:43:24;14.00;;;12.20;;
75171;SDS011;63750;52.418;20.742;2023-04-01T08:46:15;13.80;;;12.50;;
75171;SDS011;63750;52.418;20.742;2023-04-01T08:48:59;14.80;;;13.20;;
75171;SDS011;63750;52.418;20.742;2023-04-01T08:54:56;15.80;;;14.20;;
75171;SDS011;63750;52.418;20.742;2023-04-01T08:57:45;14.40;;;13.00;;
75171;SDS011;63750;52.418;20.742;2023-04-01T09:00:30;14.00;;;12.70;;
75171;SDS011;63750;52.418;20.742;2023-04-01T09:09:05;14.30;;;12.90;;
75171;SDS011;63750;52.418;20.742;2023-04-01T09:11:54;15.90;;;14.30;;
75171;SDS011;63750;52.418;20.742;2023-04-01T09:14:52;15.50;;;14.00;;
75171;SDS011;63750;52.418;20.742;2023-04-01T09:17:53;14.80;;;13.30;;
75171;SDS011;63750;52.418;20.742;2023-04-01T09:20:44;13.00;;;11.80;;
75171;SDS011;63750;52.418;20.742;2023-04-01T09:23:38;12.30;;;11.10;;
75171;SDS011;63750;52.418;20.742;2023-04-01T09:26:21;14.00;;;12.50;;
75171;SDS011;63750;52.418;20.742;2023-04-01T09:29:13;14.50;;;11.90;;
75171;SDS011;63750;52.418;20.742;2023-04-01T09:32:01;13.80;;;12.40;;
75171;SDS011;63750;52.418;20.742;2023-04-01T09:34:46;12.80;;;11.40;;
75171;SDS011;63750;52.418;20.742;2023-04-01T09:37:21;12.80;;;11.60;;
75171;SDS011;63750;52.418;20.742;2023-04-01T09:40:13;12.80;;;11.50;;
75171;SDS011;63750;52.418;20.742;2023-04-01T09:42:44;12.90;;;11.40;;
75171;SDS011;63750;52.418;20.742;2023-04-01T09:45:23;11.80;;;10.70;;
75171;SDS011;63750;52.418;20.742;2023-04-01T09:48:05;12.30;;;10.90;;
75171;SDS011;63750;52.418;20.742;2023-04-01T09:50:48;11.50;;;10.40;;
75171;SDS011;63750;52.418;20.742;2023-04-01T09:53:31;11.20;;;10.10;;
75171;SDS011;63750;52.418;20.742;2023-04-01T09:59:13;11.90;;;10.80;;
75171;SDS011;63750;52.418;20.742;2023-04-01T10:02:10;12.00;;;10.80;;
75171;SDS011;63750;52.418;20.742;2023-04-01T10:05:11;9.00;;;8.20;;
75171;SDS011;63750;52.418;20.742;2023-04-01T10:11:04;9.60;;;8.80;;
75171;SDS011;63750;52.418;20.742;2023-04-01T10:17:16;9.40;;;8.60;;
75171;SDS011;63750;52.418;20.742;2023-04-01T10:20:13;10.70;;;9.60;;
75171;SDS011;63750;52.418;20.742;2023-04-01T10:32:27;10.10;;;9.10;;
75171;SDS011;63750;52.418;20.742;2023-04-01T10:35:21;9.30;;;8.40;;
75171;SDS011;63750;52.418;20.742;2023-04-01T10:38:28;8.70;;;7.90;;
75171;SDS011;63750;52.418;20.742;2023-04-01T10:41:20;9.70;;;8.70;;
75171;SDS011;63750;52.418;20.742;2023-04-01T10:50:24;8.50;;;7.70;;
75171;SDS011;63750;52.418;20.742;2023-04-01T10:53:19;8.60;;;7.80;;
75171;SDS011;63750;52.418;20.742;2023-04-01T10:59:26;7.60;;;6.90;;
75171;SDS011;63750;52.418;20.742;2023-04-01T11:05:42;7.80;;;7.10;;
75171;SDS011;63750;52.418;20.742;2023-04-01T11:14:31;8.50;;;7.70;;
75171;SDS011;63750;52.418;20.742;2023-04-01T11:20:47;8.50;;;7.70;;
75171;SDS011;63750;52.418;20.742;2023-04-01T11:23:53;7.90;;;7.20;;
75171;SDS011;63750;52.418;20.742;2023-04-01T11:26:33;8.40;;;7.70;;
75171;SDS011;63750;52.418;20.742;2023-04-01T11:29:30;9.20;;;8.40;;
75171;SDS011;63750;52.418;20.742;2023-04-01T11:32:16;10.50;;;9.30;;
75171;SDS011;63750;52.418;20.742;2023-04-01T11:34:56;10.30;;;9.30;;
75171;SDS011;63750;52.418;20.742;2023-04-01T11:37:40;9.80;;;8.90;;
75171;SDS011;63750;52.418;20.742;2023-04-01T11:40:20;8.20;;;7.50;;
75171;SDS011;63750;52.418;20.742;2023-04-01T11:42:57;8.20;;;7.40;;
75171;SDS011;63750;52.418;20.742;2023-04-01T11:45:35;7.40;;;6.70;;
75171;SDS011;63750;52.418;20.742;2023-04-01T11:48:14;7.00;;;6.40;;
75171;SDS011;63750;52.418;20.742;2023-04-01T11:51:00;6.60;;;6.00;;
75171;SDS011;63750;52.418;20.742;2023-04-01T11:53:43;6.50;;;6.00;;
75171;SDS011;63750;52.418;20.742;2023-04-01T11:56:23;6.30;;;5.80;;
75171;SDS011;63750;52.418;20.742;2023-04-01T11:59:08;6.30;;;5.80;;
75171;SDS011;63750;52.418;20.742;2023-04-01T12:01:58;7.00;;;5.70;;
75171;SDS011;63750;52.418;20.742;2023-04-01T12:07:49;8.70;;;6.30;;
75171;SDS011;63750;52.418;20.742;2023-04-01T12:10:28;4.40;;;3.70;;
75171;SDS011;63750;52.418;20.742;2023-04-01T12:13:04;3.70;;;3.40;;
75171;SDS011;63750;52.418;20.742;2023-04-01T12:15:46;3.20;;;2.90;;
75171;SDS011;63750;52.418;20.742;2023-04-01T12:18:25;3.50;;;3.20;;
75171;SDS011;63750;52.418;20.742;2023-04-01T12:21:02;3.30;;;3.00;;
75171;SDS011;63750;52.418;20.742;2023-04-01T12:23:50;3.80;;;3.40;;
75171;SDS011;63750;52.418;20.742;2023-04-01T12:29:58;3.90;;;3.60;;
75171;SDS011;63750;52.418;20.742;2023-04-01T12:32:41;4.20;;;3.60;;
75171;SDS011;63750;52.418;20.742;2023-04-01T12:35:19;3.80;;;3.50;;
75171;SDS011;63750;52.418;20.742;2023-04-01T12:37:55;3.90;;;3.60;;
75171;SDS011;63750;52.418;20.742;2023-04-01T12:40:39;3.70;;;3.40;;
75171;SDS011;63750;52.418;20.742;2023-04-01T12:43:26;7.30;;;5.80;;
75171;SDS011;63750;52.418;20.742;2023-04-01T12:46:13;7.00;;;5.60;;
75171;SDS011;63750;52.418;20.742;2023-04-01T12:51:56;4.90;;;4.30;;
75171;SDS011;63750;52.418;20.742;2023-04-01T12:57:41;6.30;;;5.30;;
75171;SDS011;63750;52.418;20.742;2023-04-01T13:00:46;7.20;;;6.20;;
75171;SDS011;63750;52.418;20.742;2023-04-01T13:03:37;6.40;;;5.40;;
75171;SDS011;63750;52.418;20.742;2023-04-01T13:06:26;6.20;;;5.60;;
75171;SDS011;63750;52.418;20.742;2023-04-01T13:09:03;6.70;;;6.10;;
75171;SDS011;63750;52.418;20.742;2023-04-01T13:11:44;23.70;;;14.30;;
75171;SDS011;63750;52.418;20.742;2023-04-01T13:14:50;17.30;;;11.00;;
75171;SDS011;63750;52.418;20.742;2023-04-01T13:17:33;11.80;;;8.00;;
75171;SDS011;63750;52.418;20.742;2023-04-01T13:20:11;9.00;;;7.30;;
75171;SDS011;63750;52.418;20.742;2023-04-01T13:22:51;6.80;;;6.10;;
75171;SDS011;63750;52.418;20.742;2023-04-01T13:25:33;6.00;;;5.40;;
75171;SDS011;63750;52.418;20.742;2023-04-01T13:28:09;6.30;;;5.70;;
75171;SDS011;63750;52.418;20.742;2023-04-01T13:30:44;6.00;;;5.30;;
75171;SDS011;63750;52.418;20.742;2023-04-01T13:33:23;6.10;;;5.50;;
75171;SDS011;63750;52.418;20.742;2023-04-01T13:36:00;6.00;;;5.40;;
75171;SDS011;63750;52.418;20.742;2023-04-01T13:38:48;5.90;;;5.30;;
75171;SDS011;63750;52.418;20.742;2023-04-01T13:41:45;6.70;;;6.10;;
75171;SDS011;63750;52.418;20.742;2023-04-01T13:44:30;6.50;;;5.90;;
75171;SDS011;63750;52.418;20.742;2023-04-01T13:47:06;6.60;;;5.90;;
75171;SDS011;63750;52.418;20.742;2023-04-01T13:53:01;5.80;;;5.30;;
75171;SDS011;63750;52.418;20.742;2023-04-01T13:55:40;5.60;;;5.10;;
75171;SDS011;63750;52.418;20.742;2023-04-01T13:58:27;7.10;;;6.50;;
75171;SDS011;63750;52.418;20.742;2023-04-01T14:01:07;5.60;;;5.10;;
75171;SDS011;63750;52.418;20.742;2023-04-01T14:06:40;6.80;;;6.20;;
75171;SDS011;63750;52.418;20.742;2023-04-01T14:12:13;5.90;;;5.30;;
75171;SDS011;63750;52.418;20.742;2023-04-01T14:14:57;5.90;;;5.30;;
75171;SDS011;63750;52.418;20.742;2023-04-01T14:17:51;5.20;;;4.80;;
75171;SDS011;63750;52.418;20.742;2023-04-01T14:20:33;5.20;;;4.70;;
75171;SDS011;63750;52.418;20.742;2023-04-01T14:23:15;5.20;;;4.70;;
75171;SDS011;63750;52.418;20.742;2023-04-01T14:26:09;5.30;;;4.90;;
75171;SDS011;63750;52.418;20.742;2023-04-01T14:28:51;6.50;;;5.50;;
75171;SDS011;63750;52.418;20.742;2023-04-01T14:31:34;4.70;;;4.30;;
75171;SDS011;63750;52.418;20.742;2023-04-01T14:34:15;4.50;;;4.10;;
75171;SDS011;63750;52.418;20.742;2023-04-01T14:37:01;4.90;;;4.50;;
75171;SDS011;63750;52.418;20.742;2023-04-01T14:40:03;4.80;;;4.40;;
75171;SDS011;63750;52.418;20.742;2023-04-01T14:42:52;4.60;;;4.20;;
75171;SDS011;63750;52.418;20.742;2023-04-01T14:48:36;5.20;;;4.80;;
75171;SDS011;63750;52.418;20.742;2023-04-01T14:51:16;5.60;;;5.10;;
75171;SDS011;63750;52.418;20.742;2023-04-01T14:53:53;5.70;;;5.20;;
75171;SDS011;63750;52.418;20.742;2023-04-01T14:56:37;6.10;;;5.60;;
75171;SDS011;63750;52.418;20.742;2023-04-01T14:59:09;6.00;;;5.40;;
75171;SDS011;63750;52.418;20.742;2023-04-01T15:01:42;5.90;;;5.40;;
75171;SDS011;63750;52.418;20.742;2023-04-01T15:04:25;5.50;;;5.10;;
75171;SDS011;63750;52.418;20.742;2023-04-01T15:07:09;6.30;;;5.80;;
75171;SDS011;63750;52.418;20.742;2023-04-01T15:09:55;6.40;;;5.80;;
75171;SDS011;63750;52.418;20.742;2023-04-01T15:12:33;6.10;;;5.60;;
75171;SDS011;63750;52.418;20.742;2023-04-01T15:15:15;6.80;;;6.20;;
75171;SDS011;63750;52.418;20.742;2023-04-01T15:17:58;6.80;;;6.20;;
75171;SDS011;63750;52.418;20.742;2023-04-01T15:20:44;6.90;;;6.30;;
75171;SDS011;63750;52.418;20.742;2023-04-01T15:26:33;7.30;;;6.60;;
75171;SDS011;63750;52.418;20.742;2023-04-01T15:29:30;6.90;;;6.30;;
75171;SDS011;63750;52.418;20.742;2023-04-01T15:32:06;7.00;;;6.40;;
75171;SDS011;63750;52.418;20.742;2023-04-01T15:34:48;7.30;;;6.70;;
75171;SDS011;63750;52.418;20.742;2023-04-01T15:37:22;7.00;;;6.40;;
75171;SDS011;63750;52.418;20.742;2023-04-01T15:40:07;7.00;;;6.40;;
75171;SDS011;63750;52.418;20.742;2023-04-01T15:42:50;5.80;;;5.30;;
75171;SDS011;63750;52.418;20.742;2023-04-01T15:45:33;5.60;;;5.10;;
75171;SDS011;63750;52.418;20.742;2023-04-01T15:48:16;5.50;;;5.00;;
75171;SDS011;63750;52.418;20.742;2023-04-01T15:50:56;5.90;;;5.30;;
75171;SDS011;63750;52.418;20.742;2023-04-01T15:56:40;5.60;;;5.00;;
75171;SDS011;63750;52.418;20.742;2023-04-01T15:59:22;5.30;;;4.80;;
75171;SDS011;63750;52.418;20.742;2023-04-01T16:02:07;5.60;;;5.10;;
75171;SDS011;63750;52.418;20.742;2023-04-01T16:04:54;5.50;;;5.00;;
75171;SDS011;63750;52.418;20.742;2023-04-01T16:07:39;5.20;;;4.80;;
75171;SDS011;63750;52.418;20.742;2023-04-01T16:10:25;5.30;;;4.80;;
75171;SDS011;63750;52.418;20.742;2023-04-01T16:13:10;5.60;;;5.20;;
75171;SDS011;63750;52.418;20.742;2023-04-01T16:15:51;6.50;;;5.80;;
75171;SDS011;63750;52.418;20.742;2023-04-01T16:18:31;6.10;;;5.50;;
75171;SDS011;63750;52.418;20.742;2023-04-01T16:21:12;5.80;;;5.30;;
75171;SDS011;63750;52.418;20.742;2023-04-01T16:23:48;4.90;;;4.50;;
75171;SDS011;63750;52.418;20.742;2023-04-01T16:26:23;5.40;;;4.80;;
75171;SDS011;63750;52.418;20.742;2023-04-01T16:29:02;6.00;;;5.10;;
75171;SDS011;63750;52.418;20.742;2023-04-01T16:31:36;5.40;;;4.90;;
75171;SDS011;63750;52.418;20.742;2023-04-01T16:34:16;4.90;;;4.50;;
75171;SDS011;63750;52.418;20.742;2023-04-01T16:36:50;5.30;;;4.90;;
75171;SDS011;63750;52.418;20.742;2023-04-01T16:39:29;4.90;;;4.50;;
75171;SDS011;63750;52.418;20.742;2023-04-01T16:42:11;5.10;;;4.60;;
75171;SDS011;63750;52.418;20.742;2023-04-01T16:44:48;5.20;;;4.70;;
75171;SDS011;63750;52.418;20.742;2023-04-01T16:47:21;5.30;;;4.80;;
75171;SDS011;63750;52.418;20.742;2023-04-01T16:49:56;6.10;;;5.60;;
75171;SDS011;63750;52.418;20.742;2023-04-01T16:52:42;6.00;;;5.50;;